Airport View

Enter AWOS ICAO identifier for current METAR.

ex. KFNL

K28J 171030Z AUTO 34011G14KT 10SM OVC011 08/06 A2995 RMK AO2

17 Nov 2019 10:32

Frequency: 119.925

Phone: 386-312-2212

Other Area AWOS: K42J - KSGJ - KFIN - KGNV

TAF KGNV 170520Z 1706/1806 36007KT P6SM SCT008 OVC015 TEMPO 1706/1710 OVC008 FM171200 34008KT P6SM SCT010 BKN015 FM171400 35009KT P6SM SCT015 BKN025 FM171600 34007KT P6SM SCT025 SCT060